Terminal Aerodrome Forecast
Issued by NWS Binghamton, NY

Home | Current Version | Previous Version | Text Only | Print | Product List | Glossary On
Versions: 1 2 3 4 5 6 7 8 9 10 11 12 13 14 15 16 17 18
267
FTUS41 KBGM 290345 AAB
TAFBGM
TAF AMD
KBGM 290345Z 2904/2924 14010KT P6SM BKN070
      TEMPO 2904/2906 -SHRA BKN015
     FM290600 09009KT P6SM -RA OVC025
     FM291000 09011G19KT 5SM -RA BR OVC007
     FM291700 10012KT P6SM -SHRA OVC025
     FM291900 10011KT P6SM OVC035 PROB30 2919/2923 4SM -SHRA OVC025=

USA.gov is the U.S. government's official web portal to all federal, state and local government web resources and services.